Time;durP1;ratioP1;P1;durP2;ratioP2;P2;SDS_P1;SDS_P2;PMS_P1;PMS_P2;Temp;Humidity;BMP_temperature;BMP_pressure;BME280_temperature;BME280_humidity;BME280_pressure;Samples;Min_cycle;Max_cycle;Signal;HPM_P1;HPM_P2
2021/04/23 00:01:15;;;;;;;4.32;3.97;;;9.70;99.90;;;;;;4971801;28;20022;-71
2021/04/23 00:03:49;;;;;;;6.22;4.20;;;9.60;99.90;;;;;;4968249;28;20080;-71
2021/04/23 00:06:24;;;;;;;4.75;4.07;;;9.60;99.90;;;;;;4970498;28;20022;-70
2021/04/23 00:08:57;;;;;;;3.70;3.50;;;9.40;99.90;;;;;;4969766;28;20026;-70
2021/04/23 00:11:51;;;;;;;4.22;3.80;;;9.30;99.90;;;;;;4972580;28;20034;-70
2021/04/23 00:14:20;;;;;;;4.13;3.58;;;9.40;99.90;;;;;;4967402;28;20491;-70
2021/04/23 00:16:46;;;;;;;4.00;3.70;;;9.50;99.90;;;;;;4975777;28;20035;-70
2021/04/23 00:19:16;;;;;;;4.38;3.97;;;9.40;99.90;;;;;;4971039;28;20021;-71
2021/04/23 00:21:43;;;;;;;3.90;3.53;;;9.50;99.90;;;;;;4974309;28;20046;-71
2021/04/23 00:24:09;;;;;;;4.43;4.03;;;9.40;99.90;;;;;;4970672;28;20065;-70
2021/04/23 00:26:35;;;;;;;7.18;4.50;;;9.20;99.90;;;;;;4970962;28;20053;-70
2021/04/23 00:29:02;;;;;;;4.30;3.88;;;9.30;99.90;;;;;;4971757;28;20030;-70
2021/04/23 00:31:28;;;;;;;5.07;4.05;;;9.10;99.90;;;;;;4979929;28;20687;-70
2021/04/23 00:33:54;;;;;;;4.53;4.13;;;9.20;99.90;;;;;;4971644;28;20023;-70
2021/04/23 00:36:19;;;;;;;7.00;4.10;;;9.10;99.90;;;;;;4978801;28;20107;-70
2021/04/23 00:38:46;;;;;;;4.80;3.88;;;8.90;99.90;;;;;;4972658;28;20657;-70
2021/04/23 00:41:20;;;;;;;4.65;4.15;;;9.00;99.90;;;;;;4979066;28;20026;-70
2021/04/23 00:43:56;;;;;;;4.18;3.90;;;9.00;99.90;;;;;;4972916;28;20031;-70
2021/04/23 00:46:22;;;;;;;4.63;4.22;;;9.00;99.90;;;;;;4981497;28;20022;-70
2021/04/23 00:48:48;;;;;;;4.85;4.55;;;8.60;99.90;;;;;;4972566;28;20433;-70
2021/04/23 00:51:24;;;;;;;4.50;4.10;;;8.60;99.90;;;;;;4974550;28;20073;-70
2021/04/23 00:53:52;;;;;;;4.20;3.90;;;8.60;99.90;;;;;;4970902;28;20511;-70
2021/04/23 00:56:22;;;;;;;5.68;4.35;;;8.70;99.90;;;;;;4979143;28;20033;-70
2021/04/23 00:58:48;;;;;;;4.93;4.18;;;8.80;99.90;;;;;;4972538;28;20555;-70
2021/04/23 01:01:23;;;;;;;4.45;4.05;;;8.90;99.90;;;;;;4975080;28;20031;-70
2021/04/23 01:03:49;;;;;;;5.38;4.60;;;8.80;99.90;;;;;;4970770;28;20014;-70
2021/04/23 01:06:21;;;;;;;4.38;4.03;;;8.60;99.90;;;;;;4976372;28;20150;-70
2021/04/23 01:08:47;;;;;;;4.95;4.22;;;8.60;99.90;;;;;;4971983;28;20022;-70
2021/04/23 01:11:14;;;;;;;5.00;4.60;;;8.60;99.90;;;;;;4972180;28;20027;-70
2021/04/23 01:13:41;;;;;;;4.38;4.03;;;8.60;99.90;;;;;;4972518;28;20026;-70
2021/04/23 01:16:20;;;;;;;4.70;4.30;;;8.80;99.90;;;;;;4977851;28;20471;-70
2021/04/23 01:18:48;;;;;;;5.38;4.18;;;8.60;99.90;;;;;;4972326;28;20023;-70
2021/04/23 01:21:21;;;;;;;5.10;4.22;;;8.50;99.90;;;;;;4978322;28;20026;-70
2021/04/23 01:23:48;;;;;;;4.90;4.50;;;8.80;99.90;;;;;;4972344;28;20447;-70
2021/04/23 01:26:17;;;;;;;5.05;4.07;;;8.70;99.90;;;;;;4979946;28;20033;-70
2021/04/23 01:28:44;;;;;;;5.85;4.10;;;8.50;99.90;;;;;;4973150;28;20106;-72
2021/04/23 01:31:13;;;;;;;4.57;4.28;;;8.20;99.90;;;;;;4973572;28;20380;-70
2021/04/23 01:33:42;;;;;;;4.75;4.40;;;8.20;99.90;;;;;;4991217;28;20030;-70
2021/04/23 01:36:10;;;;;;;4.90;4.50;;;8.10;99.90;;;;;;4974220;28;20621;-70
2021/04/23 01:38:40;;;;;;;4.88;4.57;;;8.10;99.90;;;;;;4980293;28;20062;-70
2021/04/23 01:41:06;;;;;;;4.68;4.25;;;8.10;99.90;;;;;;4975596;28;20436;-70
2021/04/23 01:43:33;;;;;;;5.32;4.65;;;8.30;99.90;;;;;;4981466;28;20094;-70
2021/04/23 01:46:00;;;;;;;4.57;4.28;;;8.40;99.90;;;;;;4978744;28;20034;-71
2021/04/23 01:48:26;;;;;;;5.50;4.30;;;8.00;99.90;;;;;;4980272;28;20054;-70
2021/04/23 01:50:52;;;;;;;5.45;5.13;;;8.10;99.90;;;;;;4975444;28;20081;-70
2021/04/23 01:53:19;;;;;;;5.28;4.78;;;8.20;99.90;;;;;;4979539;28;20407;-70
2021/04/23 01:55:45;;;;;;;4.85;4.45;;;8.10;99.90;;;;;;4979126;28;20115;-70
2021/04/23 01:58:11;;;;;;;5.18;4.45;;;8.10;99.90;;;;;;4978606;28;20052;-70
2021/04/23 02:00:46;;;;;;;5.55;5.05;;;8.10;99.90;;;;;;4975450;28;20035;-70
2021/04/23 02:03:13;;;;;;;5.40;4.95;;;8.00;99.90;;;;;;4961437;28;20035;-70
2021/04/23 02:05:40;;;;;;;5.35;4.95;;;7.70;99.90;;;;;;4964149;28;20035;-70
2021/04/23 02:08:08;;;;;;;5.63;4.60;;;7.70;99.90;;;;;;4989428;28;20034;-70
2021/04/23 02:10:40;;;;;;;5.65;5.25;;;7.70;99.90;;;;;;4969043;28;20026;-70
2021/04/23 02:13:06;;;;;;;7.70;5.22;;;7.70;99.90;;;;;;4965926;28;20038;-70
2021/04/23 02:15:32;;;;;;;5.85;5.28;;;7.70;99.90;;;;;;4974263;28;20031;-70
2021/04/23 02:17:59;;;;;;;6.32;5.47;;;7.70;99.90;;;;;;4981345;28;20031;-70
2021/04/23 02:20:30;;;;;;;5.68;5.18;;;7.80;99.90;;;;;;4973758;28;20018;-70
2021/04/23 02:22:58;;;;;;;5.60;5.20;;;7.90;99.90;;;;;;4976486;28;20054;-70
2021/04/23 02:25:25;;;;;;;6.07;5.57;;;8.00;99.90;;;;;;4965419;28;20509;-70
2021/04/23 02:27:51;;;;;;;5.53;5.03;;;8.00;99.90;;;;;;4975198;28;20026;-70
2021/04/23 02:30:24;;;;;;;5.30;4.82;;;7.80;99.90;;;;;;4974731;28;20026;-70
2021/04/23 02:32:50;;;;;;;5.68;5.28;;;7.60;99.90;;;;;;4974589;28;20015;-70
2021/04/23 02:35:17;;;;;;;4.75;4.45;;;7.90;99.90;;;;;;4975266;28;20044;-70
2021/04/23 02:37:43;;;;;;;5.25;4.40;;;7.30;99.90;;;;;;4980365;28;20487;-70
2021/04/23 02:40:13;;;;;;;5.72;5.22;;;6.90;99.90;;;;;;4974957;28;20085;-70
2021/04/23 02:42:39;;;;;;;5.53;5.03;;;6.90;99.90;;;;;;4980911;28;20030;-70
2021/04/23 02:45:07;;;;;;;5.85;5.45;;;7.30;99.90;;;;;;4973470;28;20053;-70
2021/04/23 02:47:33;;;;;;;6.20;5.60;;;7.50;99.90;;;;;;4983644;28;20459;-70
2021/04/23 02:49:59;;;;;;;5.35;4.95;;;7.30;99.90;;;;;;4972579;28;20035;-70
2021/04/23 02:52:24;;;;;;;6.05;5.00;;;7.30;99.90;;;;;;4980010;28;20061;-70
2021/04/23 02:54:51;;;;;;;6.22;5.70;;;7.30;99.90;;;;;;4957111;28;20101;-70
2021/04/23 02:57:17;;;;;;;6.00;5.50;;;7.30;99.90;;;;;;4984528;28;20022;-70
2021/04/23 02:59:44;;;;;;;6.50;5.10;;;7.30;99.90;;;;;;4978103;28;20027;-70
2021/04/23 03:02:10;;;;;;;5.13;4.72;;;7.20;99.90;;;;;;4982383;28;20541;-70
2021/04/23 03:04:36;;;;;;;5.38;4.95;;;7.30;99.90;;;;;;4972106;28;20496;-70
2021/04/23 03:07:02;;;;;;;4.53;4.13;;;7.30;99.90;;;;;;4978897;28;20037;-71
2021/04/23 03:09:28;;;;;;;8.02;5.40;;;7.40;99.90;;;;;;4978575;28;20027;-72
2021/04/23 03:11:54;;;;;;;9.88;6.22;;;7.30;99.90;;;;;;4976956;28;20030;-70
2021/04/23 03:14:20;;;;;;;5.75;5.20;;;7.10;99.90;;;;;;4971939;28;20015;-71
2021/04/23 03:16:46;;;;;;;9.93;5.57;;;7.10;99.90;;;;;;4972334;28;20105;-71
2021/04/23 03:19:18;;;;;;;6.00;5.18;;;7.00;99.90;;;;;;4972487;28;20026;-70
2021/04/23 03:21:45;;;;;;;5.28;4.78;;;7.10;99.90;;;;;;4972320;28;20141;-69
2021/04/23 03:24:12;;;;;;;8.65;5.63;;;7.00;99.90;;;;;;4978768;28;20560;-70
2021/04/23 03:26:39;;;;;;;6.72;6.13;;;6.80;99.90;;;;;;4976221;28;20033;-70
2021/04/23 03:29:07;;;;;;;6.65;6.15;;;6.40;99.90;;;;;;4976850;28;20030;-70
2021/04/23 03:31:34;;;;;;;7.53;6.93;;;6.40;99.90;;;;;;4977673;28;20073;-70
2021/04/23 03:34:00;;;;;;;8.80;6.70;;;6.60;99.90;;;;;;4976452;28;20025;-70
2021/04/23 03:36:26;;;;;;;7.72;7.22;;;6.70;99.90;;;;;;4971804;28;20033;-70
2021/04/23 03:38:52;;;;;;;7.57;6.95;;;6.80;99.90;;;;;;4957481;28;20468;-70
2021/04/23 03:41:23;;;;;;;8.48;7.57;;;6.80;99.90;;;;;;4968816;28;20466;-70
2021/04/23 03:43:50;;;;;;;9.88;8.38;;;6.70;99.90;;;;;;4964974;28;20391;-72
2021/04/23 03:46:16;;;;;;;10.70;8.20;;;6.70;99.90;;;;;;4969323;28;20150;-72
2021/04/23 03:48:43;;;;;;;10.55;7.82;;;6.70;99.90;;;;;;4965753;28;20150;-71
2021/04/23 03:51:09;;;;;;;13.35;9.80;;;6.70;99.90;;;;;;4968110;28;20030;-70
2021/04/23 03:53:36;;;;;;;10.32;9.13;;;6.70;99.90;;;;;;4971485;28;20030;-71
2021/04/23 03:56:04;;;;;;;11.27;8.10;;;6.80;99.90;;;;;;4969667;28;20022;-70
2021/04/23 03:58:31;;;;;;;8.23;5.95;;;6.90;99.90;;;;;;4972712;28;20033;-70
2021/04/23 04:01:00;;;;;;;8.40;6.35;;;6.90;99.90;;;;;;4976471;28;20511;-71
2021/04/23 04:03:28;;;;;;;8.68;5.80;;;6.80;99.90;;;;;;4967426;28;20068;-71
2021/04/23 04:05:54;;;;;;;6.07;5.45;;;6.90;99.90;;;;;;4960262;28;20027;-70
2021/04/23 04:08:20;;;;;;;5.95;5.50;;;7.00;99.90;;;;;;4972225;28;20074;-70
2021/04/23 04:10:47;;;;;;;7.40;6.53;;;7.10;99.90;;;;;;4976321;28;20105;-70
2021/04/23 04:13:13;;;;;;;14.10;6.53;;;7.00;99.90;;;;;;4973527;28;20033;-70
2021/04/23 04:15:39;;;;;;;7.10;6.40;;;7.00;99.90;;;;;;4948445;28;20030;-70
2021/04/23 04:18:06;;;;;;;6.63;5.53;;;6.80;99.90;;;;;;4961036;28;20042;-70
2021/04/23 04:20:34;;;;;;;5.72;5.22;;;6.70;99.90;;;;;;4967730;28;20030;-70
2021/04/23 04:23:00;;;;;;;7.82;6.80;;;6.40;99.90;;;;;;4965379;28;20130;-70
2021/04/23 04:25:29;;;;;;;7.55;5.85;;;6.10;99.90;;;;;;4983443;28;20098;-71
2021/04/23 04:27:57;;;;;;;8.25;7.15;;;6.00;99.90;;;;;;4978332;28;20015;-70
2021/04/23 04:30:24;;;;;;;10.52;7.07;;;6.00;99.90;;;;;;4967374;28;20059;-70
2021/04/23 04:32:50;;;;;;;10.77;6.43;;;5.90;99.90;;;;;;4970577;28;20027;-71
2021/04/23 04:35:16;;;;;;;7.95;5.97;;;6.20;99.90;;;;;;4969888;28;20046;-70
2021/04/23 04:37:42;;;;;;;7.15;6.45;;;6.10;99.90;;;;;;4960300;28;20461;-72
2021/04/23 04:40:10;;;;;;;13.77;7.38;;;6.20;99.90;;;;;;4959799;28;20031;-71
2021/04/23 04:42:36;;;;;;;8.13;6.85;;;6.10;99.90;;;;;;4967169;28;20523;-70
2021/04/23 04:45:05;;;;;;;9.25;6.38;;;6.30;99.90;;;;;;4958403;28;20025;-71
2021/04/23 04:47:32;;;;;;;7.47;6.65;;;6.20;99.90;;;;;;4970983;28;20027;-71
2021/04/23 04:49:59;;;;;;;8.88;6.75;;;6.30;99.90;;;;;;4959066;28;20025;-71
2021/04/23 04:52:27;;;;;;;8.65;7.20;;;6.30;99.90;;;;;;4970673;28;20065;-71
2021/04/23 04:54:52;;;;;;;10.43;6.85;;;6.20;99.90;;;;;;4966119;28;20031;-71
2021/04/23 04:57:19;;;;;;;9.35;6.85;;;6.00;99.90;;;;;;4970268;28;20598;-71
2021/04/23 04:59:46;;;;;;;9.32;8.27;;;6.00;99.90;;;;;;4969268;28;20447;-71
2021/04/23 05:02:13;;;;;;;10.73;8.70;;;6.10;99.90;;;;;;4975108;28;20022;-70
2021/04/23 05:04:38;;;;;;;10.95;7.32;;;6.20;99.90;;;;;;4965818;28;20046;-71
2021/04/23 05:07:05;;;;;;;7.45;6.63;;;6.20;99.90;;;;;;4969659;28;20702;-71
2021/04/23 05:09:30;;;;;;;14.35;7.68;;;6.30;99.90;;;;;;4950181;28;20050;-70
2021/04/23 05:11:56;;;;;;;16.60;6.28;;;6.30;99.90;;;;;;4958343;28;20039;-71
2021/04/23 05:14:22;;;;;;;8.80;6.03;;;6.30;99.90;;;;;;4954854;28;20023;-71
2021/04/23 05:16:49;;;;;;;7.18;6.07;;;6.30;99.90;;;;;;4976185;28;20023;-71
2021/04/23 05:19:15;;;;;;;10.95;7.53;;;6.20;99.90;;;;;;4961362;28;20029;-71
2021/04/23 05:21:41;;;;;;;8.15;6.75;;;6.00;99.90;;;;;;4977446;28;20050;-71
2021/04/23 05:24:08;;;;;;;10.45;7.50;;;6.10;99.90;;;;;;4963547;28;20050;-71
2021/04/23 05:26:33;;;;;;;6.97;6.05;;;6.30;99.90;;;;;;4981974;28;20022;-71
2021/04/23 05:28:59;;;;;;;9.90;6.78;;;6.30;99.90;;;;;;4967280;28;20061;-71
2021/04/23 05:31:25;;;;;;;10.57;8.00;;;6.60;99.90;;;;;;4971019;28;20038;-71
2021/04/23 05:33:50;;;;;;;15.25;9.65;;;6.10;99.90;;;;;;4957139;28;20638;-71
2021/04/23 05:36:16;;;;;;;13.05;10.75;;;6.00;99.90;;;;;;4960816;28;20114;-71
2021/04/23 05:38:42;;;;;;;15.63;11.05;;;6.00;99.90;;;;;;4956114;28;20078;-71
2021/04/23 05:41:07;;;;;;;22.65;11.50;;;5.90;99.90;;;;;;4963844;28;20022;-71
2021/04/23 05:43:33;;;;;;;18.85;11.40;;;6.10;99.90;;;;;;4955372;28;20037;-71
2021/04/23 05:45:59;;;;;;;20.73;11.65;;;6.30;99.90;;;;;;4966328;28;20034;-71
2021/04/23 05:48:24;;;;;;;19.00;11.90;;;6.30;99.90;;;;;;4972771;28;20032;-71
2021/04/23 05:50:50;;;;;;;14.07;10.85;;;6.30;99.90;;;;;;4968011;28;20507;-71
2021/04/23 05:53:16;;;;;;;19.38;10.65;;;6.30;99.90;;;;;;4982772;28;20045;-71
2021/04/23 05:55:43;;;;;;;15.90;11.15;;;6.40;99.90;;;;;;4976996;28;20475;-70
2021/04/23 05:58:10;;;;;;;12.98;10.90;;;6.40;99.90;;;;;;4973129;28;20069;-71
2021/04/23 06:00:40;;;;;;;14.52;10.60;;;6.60;99.90;;;;;;4966999;28;20081;-71
2021/04/23 06:03:06;;;;;;;18.75;10.93;;;6.70;99.90;;;;;;4975902;28;20475;-71
2021/04/23 06:05:33;;;;;;;16.25;10.25;;;6.80;99.90;;;;;;4976396;28;20065;-71
2021/04/23 06:08:03;;;;;;;12.82;9.90;;;7.00;99.90;;;;;;4980948;28;20027;-71
2021/04/23 06:10:29;;;;;;;12.20;9.32;;;6.90;99.90;;;;;;4976915;28;20022;-71
2021/04/23 06:12:55;;;;;;;12.23;8.45;;;7.20;99.90;;;;;;4980966;28;20030;-70
2021/04/23 06:15:21;;;;;;;9.15;8.20;;;7.30;99.90;;;;;;4976003;28;20030;-70
2021/04/23 06:17:47;;;;;;;10.95;7.70;;;7.30;99.90;;;;;;4981519;28;20026;-70
2021/04/23 06:20:17;;;;;;;11.18;6.82;;;7.40;99.90;;;;;;4974472;28;20480;-71
2021/04/23 06:22:43;;;;;;;9.25;6.82;;;7.70;99.90;;;;;;4979361;28;20106;-71
2021/04/23 06:25:13;;;;;;;7.28;6.70;;;7.80;99.90;;;;;;4970189;28;20434;-70
2021/04/23 06:27:39;;;;;;;7.45;6.82;;;7.80;99.90;;;;;;4970385;28;20026;-72
2021/04/23 06:30:11;;;;;;;8.70;6.25;;;7.90;99.90;;;;;;4962108;28;20084;-71
2021/04/23 06:32:42;;;;;;;9.68;5.80;;;8.00;99.90;;;;;;4967352;28;20031;-71
2021/04/23 06:35:14;;;;;;;8.35;6.30;;;8.20;99.90;;;;;;4972818;28;20491;-72
2021/04/23 06:37:39;;;;;;;10.05;6.20;;;8.40;99.90;;;;;;4959823;28;20026;-71
2021/04/23 06:40:06;;;;;;;6.32;5.82;;;8.50;99.90;;;;;;4960242;28;20034;-71
2021/04/23 06:42:32;;;;;;;10.02;6.03;;;8.60;99.90;;;;;;4982828;28;20501;-71
2021/04/23 06:44:58;;;;;;;7.20;6.28;;;8.70;99.90;;;;;;4976347;28;20031;-71
2021/04/23 06:47:24;;;;;;;7.75;6.05;;;8.80;99.90;;;;;;4981924;28;20030;-71
2021/04/23 06:49:50;;;;;;;7.35;6.32;;;8.90;99.90;;;;;;4970429;28;20027;-71
2021/04/23 06:52:15;;;;;;;6.60;6.15;;;8.90;99.90;;;;;;4966056;28;20039;-69
2021/04/23 06:54:41;;;;;;;6.03;5.20;;;9.20;99.90;;;;;;4966783;28;20018;-69
2021/04/23 06:57:07;;;;;;;6.07;5.50;;;9.20;99.90;;;;;;4971999;28;20066;-68
2021/04/23 06:59:32;;;;;;;4.70;4.30;;;9.50;99.90;;;;;;4952751;28;20026;-71
2021/04/23 07:01:58;;;;;;;5.13;4.50;;;9.70;99.90;;;;;;4972695;28;20451;-69
2021/04/23 07:04:24;;;;;;;4.90;4.40;;;9.80;99.90;;;;;;4978419;28;20026;-70
2021/04/23 07:06:49;;;;;;;3.97;3.65;;;9.80;99.90;;;;;;4974436;28;20391;-69
2021/04/23 07:09:17;;;;;;;4.50;4.05;;;9.90;99.90;;;;;;4978857;28;20113;-69
2021/04/23 07:11:47;;;;;;;4.43;4.13;;;10.00;99.90;;;;;;4970121;28;20015;-68
2021/04/23 07:14:13;;;;;;;4.72;4.28;;;10.20;99.90;;;;;;4960895;28;20019;-68
2021/04/23 07:16:38;;;;;;;3.95;3.65;;;10.30;99.90;;;;;;4964088;28;20035;-68
2021/04/23 07:19:04;;;;;;;5.47;4.22;;;10.40;99.90;;;;;;4970657;28;20027;-68
2021/04/23 07:21:30;;;;;;;4.22;3.92;;;10.50;99.90;;;;;;4968053;28;20426;-68
2021/04/23 07:23:56;;;;;;;4.03;3.65;;;10.70;99.90;;;;;;4977721;28;20029;-69
2021/04/23 07:26:22;;;;;;;9.00;3.42;;;10.90;99.90;;;;;;4974227;28;20633;-69
2021/04/23 07:28:47;;;;;;;5.57;3.85;;;11.10;99.90;;;;;;4979165;28;20082;-75
2021/04/23 07:31:13;;;;;;;7.85;3.30;;;12.90;99.90;;;;;;4976577;28;20117;-74
2021/04/23 07:33:39;;;;;;;6.28;3.90;;;12.10;99.90;;;;;;4971426;28;20026;-74
2021/04/23 07:36:05;;;;;;;10.70;4.13;;;11.70;99.90;;;;;;4964314;28;20042;-75
2021/04/23 07:38:31;;;;;;;8.05;4.20;;;11.60;99.90;;;;;;4966226;28;20042;-70
2021/04/23 07:40:58;;;;;;;9.18;3.80;;;11.80;99.90;;;;;;4970403;28;20483;-69
2021/04/23 07:43:23;;;;;;;8.85;3.40;;;11.90;99.90;;;;;;4972283;28;20030;-69
2021/04/23 07:45:51;;;;;;;13.77;3.58;;;11.90;99.90;;;;;;4976187;28;20033;-69
2021/04/23 07:48:16;;;;;;;13.30;4.05;;;12.10;99.90;;;;;;4982248;28;20022;-69
2021/04/23 07:50:43;;;;;;;5.22;3.70;;;12.30;99.90;;;;;;4973093;28;20042;-69
2021/04/23 07:53:08;;;;;;;12.57;3.35;;;12.40;99.90;;;;;;4976122;28;20011;-69
2021/04/23 07:55:34;;;;;;;9.10;4.18;;;12.50;99.90;;;;;;4966346;28;20385;-69
2021/04/23 07:58:00;;;;;;;10.13;3.72;;;12.40;99.90;;;;;;4955214;28;20019;-69
2021/04/23 08:00:26;;;;;;;11.13;3.40;;;12.60;99.90;;;;;;4964011;28;20039;-69
2021/04/23 08:02:53;;;;;;;12.10;3.55;;;12.70;99.90;;;;;;4975088;28;20062;-70
2021/04/23 08:05:20;;;;;;;7.13;2.97;;;12.90;99.90;;;;;;4964400;28;20063;-69
2021/04/23 08:07:46;;;;;;;10.10;3.35;;;13.40;99.90;;;;;;4974379;28;20105;-71
2021/04/23 08:10:14;;;;;;;12.85;3.20;;;13.20;99.90;;;;;;4971724;28;20118;-71
2021/04/23 08:12:40;;;;;;;8.85;2.83;;;13.60;99.90;;;;;;4965050;28;20026;-71
2021/04/23 08:15:08;;;;;;;7.65;3.10;;;13.90;99.90;;;;;;4966245;28;20506;-72
2021/04/23 08:17:35;;;;;;;7.95;2.78;;;14.10;99.90;;;;;;4982484;28;20027;-71
2021/04/23 08:20:02;;;;;;;9.35;2.85;;;14.10;99.90;;;;;;4972042;28;20113;-71
2021/04/23 08:22:28;;;;;;;14.43;3.10;;;14.30;99.90;;;;;;4978648;28;20057;-71
2021/04/23 08:24:53;;;;;;;12.32;2.70;;;14.60;99.90;;;;;;4976638;28;20034;-71
2021/04/23 08:27:19;;;;;;;8.52;2.70;;;14.70;99.90;;;;;;4974825;28;20025;-71
2021/04/23 08:29:45;;;;;;;3.25;2.75;;;15.00;99.90;;;;;;4971008;28;20062;-71
2021/04/23 08:32:10;;;;;;;7.40;2.42;;;15.10;99.90;;;;;;4982055;28;20019;-71
2021/04/23 08:34:36;;;;;;;7.15;2.50;;;15.30;99.90;;;;;;4971003;28;20035;-71
2021/04/23 08:37:02;;;;;;;5.30;2.78;;;15.40;99.90;;;;;;4982179;28;20520;-71
2021/04/23 08:39:27;;;;;;;10.63;2.50;;;15.70;99.90;;;;;;4970385;28;20685;-71
2021/04/23 08:41:54;;;;;;;7.30;3.33;;;16.00;99.90;;;;;;4976546;28;20031;-71
2021/04/23 08:44:20;;;;;;;12.10;2.80;;;16.10;99.90;;;;;;4974572;28;20034;-71
2021/04/23 08:46:47;;;;;;;3.92;2.40;;;16.50;99.90;;;;;;4975060;28;20103;-71
2021/04/23 08:49:16;;;;;;;2.47;2.28;;;16.60;99.90;;;;;;4971065;28;20471;-71
2021/04/23 08:51:43;;;;;;;2.25;1.98;;;16.80;99.90;;;;;;4970147;28;20015;-72
2021/04/23 08:54:09;;;;;;;6.80;2.50;;;17.10;99.90;;;;;;4970598;28;20035;-71
2021/04/23 08:56:34;;;;;;;2.60;2.40;;;17.30;99.90;;;;;;4975854;28;20033;-71
2021/04/23 08:59:00;;;;;;;2.22;2.03;;;17.50;99.90;;;;;;4984007;28;20467;-71
2021/04/23 09:01:26;;;;;;;2.35;1.92;;;17.50;99.90;;;;;;4970667;28;20027;-71
2021/04/23 09:03:52;;;;;;;2.30;2.10;;;17.60;99.90;;;;;;4980070;28;20042;-71
2021/04/23 09:06:23;;;;;;;5.25;2.28;;;18.00;99.90;;;;;;4963513;28;20416;-71
2021/04/23 09:08:52;;;;;;;2.63;1.98;;;17.90;99.90;;;;;;4969202;28;20440;-71
2021/04/23 09:11:31;;;;;;;5.80;2.13;;;18.00;99.90;;;;;;4975739;28;20054;-65
2021/04/23 09:14:06;;;;;;;10.07;2.22;;;18.30;99.80;;;;;;4980596;28;20143;-66
2021/04/23 09:16:44;;;;;;;7.53;1.88;;;18.80;99.90;;;;;;4989176;28;20385;-66
2021/04/23 09:19:19;;;;;;;3.00;1.88;;;18.90;99.90;;;;;;4981118;28;20031;-65
2021/04/23 09:21:57;;;;;;;6.20;1.88;;;19.10;97.90;;;;;;4977272;28;20057;-65
2021/04/23 09:24:44;;;;;;;4.18;1.88;;;19.30;96.80;;;;;;4963983;28;20105;-66
2021/04/23 09:27:24;;;;;;;5.93;1.95;;;19.40;96.80;;;;;;4977507;28;20073;-64
2021/04/23 09:29:52;;;;;;;6.43;2.00;;;19.40;96.40;;;;;;4978652;28;20035;-65
2021/04/23 09:32:22;;;;;;;4.45;2.08;;;19.60;96.20;;;;;;4979323;28;20042;-65
2021/04/23 09:34:55;;;;;;;6.90;1.60;;;19.80;96.20;;;;;;4979236;28;20610;-65
2021/04/23 09:37:23;;;;;;;6.35;1.90;;;19.70;95.60;;;;;;4972592;28;20109;-65
2021/04/23 09:39:51;;;;;;;17.13;2.03;;;19.80;95.70;;;;;;4970674;28;20031;-69
2021/04/23 09:42:18;;;;;;;5.30;2.10;;;19.80;95.50;;;;;;4966125;28;20039;-67
2021/04/23 09:44:47;;;;;;;8.50;1.80;;;20.00;95.00;;;;;;4961755;28;20047;-67
2021/04/23 09:47:15;;;;;;;2.95;1.83;;;20.30;95.70;;;;;;4980656;28;20019;-68
2021/04/23 09:49:55;;;;;;;6.88;1.80;;;20.30;95.10;;;;;;4970437;28;20022;-68
2021/04/23 09:52:22;;;;;;;18.70;2.03;;;20.50;94.70;;;;;;4972906;28;20030;-69
2021/04/23 09:55:07;;;;;;;17.67;2.40;;;20.60;94.90;;;;;;4970743;28;20019;-70
2021/04/23 09:57:34;;;;;;;6.03;2.17;;;21.00;94.90;;;;;;4975643;28;20491;-70
2021/04/23 10:00:18;;;;;;;10.80;2.00;;;20.90;95.00;;;;;;4975105;28;20057;-70
2021/04/23 10:02:48;;;;;;;6.43;1.80;;;20.80;94.30;;;;;;4968119;28;20034;-71
2021/04/23 10:05:28;;;;;;;7.82;1.75;;;20.60;93.90;;;;;;4975275;28;20033;-71
2021/04/23 10:07:54;;;;;;;4.55;1.90;;;20.60;93.90;;;;;;4984746;28;20059;-70
2021/04/23 10:10:19;;;;;;;4.05;1.42;;;20.60;93.70;;;;;;4975834;28;20242;-70
2021/04/23 10:12:53;;;;;;;4.68;1.48;;;21.00;94.50;;;;;;4976061;28;20030;-70
2021/04/23 10:15:24;;;;;;;7.03;1.88;;;21.40;94.00;;;;;;4974013;28;20110;-71
2021/04/23 10:18:05;;;;;;;12.20;2.00;;;21.40;93.30;;;;;;4976334;28;20034;-70
2021/04/23 10:20:35;;;;;;;12.77;2.40;;;21.60;93.70;;;;;;4972482;28;20034;-69
2021/04/23 10:23:02;;;;;;;4.55;1.80;;;21.20;92.40;;;;;;4980727;28;20047;-70
2021/04/23 10:25:29;;;;;;;6.82;1.60;;;21.20;92.40;;;;;;4976263;28;20031;-70
2021/04/23 10:27:56;;;;;;;2.95;1.73;;;21.40;91.90;;;;;;4982644;28;20065;-68
2021/04/23 10:30:24;;;;;;;10.82;1.60;;;21.40;92.10;;;;;;4969815;28;20035;-68
2021/04/23 10:32:57;;;;;;;31.25;1.70;;;21.60;92.00;;;;;;4968040;28;20031;-68
2021/04/23 10:35:23;;;;;;;7.03;1.33;;;22.10;91.70;;;;;;4965570;28;20050;-68
2021/04/23 10:37:50;;;;;;;5.30;1.35;;;22.30;91.40;;;;;;4979972;28;20027;-68
2021/04/23 10:40:18;;;;;;;2.00;1.55;;;21.70;90.70;;;;;;4971769;28;20029;-69
2021/04/23 10:42:50;;;;;;;13.60;2.17;;;21.70;91.20;;;;;;4959238;28;20031;-68
2021/04/23 10:45:38;;;;;;;5.50;1.67;;;21.80;90.80;;;;;;4964735;28;20026;-68
2021/04/23 10:48:24;;;;;;;7.60;1.70;;;22.00;91.70;;;;;;4964003;28;20058;-68
2021/04/23 10:51:11;;;;;;;4.20;1.48;;;22.30;91.20;;;;;;4971100;28;20015;-68
2021/04/23 10:53:43;;;;;;;4.95;1.60;;;22.30;90.40;;;;;;4952501;28;20046;-69
2021/04/23 10:56:21;;;;;;;4.55;1.70;;;22.30;89.90;;;;;;4966870;28;20102;-68
2021/04/23 10:58:47;;;;;;;8.90;1.70;;;22.50;90.50;;;;;;4965519;28;20448;-69
2021/04/23 11:01:13;;;;;;;6.72;1.98;;;22.80;90.50;;;;;;4970101;28;20034;-68
2021/04/23 11:03:40;;;;;;;5.00;1.80;;;22.70;89.10;;;;;;4956830;28;20045;-69
2021/04/23 11:06:14;;;;;;;5.55;1.35;;;22.50;88.00;;;;;;4972612;28;20062;-68
2021/04/23 11:08:58;;;;;;;4.68;1.00;;;23.10;89.10;;;;;;4962922;28;20537;-69
2021/04/23 11:11:28;;;;;;;5.93;1.60;;;23.20;88.20;;;;;;4974052;28;20061;-68
2021/04/23 11:13:54;;;;;;;3.30;1.40;;;23.10;87.80;;;;;;4972736;28;20031;-69
2021/04/23 11:16:26;;;;;;;4.00;1.20;;;23.30;87.60;;;;;;4969405;28;20458;-68
2021/04/23 11:18:57;;;;;;;3.15;1.50;;;23.30;87.60;;;;;;4960830;28;20024;-69
2021/04/23 11:21:34;;;;;;;6.38;1.48;;;23.30;86.50;;;;;;4970371;28;20073;-68
2021/04/23 11:24:24;;;;;;;2.88;1.90;;;23.40;87.20;;;;;;4975565;28;20556;-69
2021/04/23 11:27:04;;;;;;;7.78;1.42;;;23.00;85.80;;;;;;4985062;28;20564;-68
2021/04/23 11:29:48;;;;;;;6.32;1.42;;;23.30;85.90;;;;;;4954349;28;20111;-68
2021/04/23 11:32:20;;;;;;;4.57;1.25;;;23.70;87.20;;;;;;4984450;28;20034;-69
2021/04/23 11:34:48;;;;;;;1.48;1.15;;;23.60;83.70;;;;;;4971881;28;20054;-69
2021/04/23 11:37:40;;;;;;;12.70;1.38;;;23.90;86.50;;;;;;4979447;28;20054;-69
2021/04/23 11:40:29;;;;;;;5.13;1.50;;;23.90;82.60;;;;;;4960260;28;20571;-69
2021/04/23 11:43:01;;;;;;;6.90;1.20;;;24.10;81.70;;;;;;4975259;28;20050;-69
2021/04/23 11:45:36;;;;;;;3.83;1.48;;;23.90;82.80;;;;;;4974438;28;20035;-69
2021/04/23 11:48:08;;;;;;;1.63;1.38;;;24.40;82.90;;;;;;4962374;28;20435;-69
2021/04/23 11:50:39;;;;;;;3.08;1.30;;;24.10;81.30;;;;;;4970166;28;20568;-69
2021/04/23 11:53:11;;;;;;;4.15;1.30;;;24.20;79.50;;;;;;4968203;28;20023;-69
2021/04/23 11:55:49;;;;;;;7.97;1.55;;;24.30;78.60;;;;;;4971233;28;20105;-69
2021/04/23 11:58:21;;;;;;;6.25;1.48;;;24.50;81.30;;;;;;4960388;28;20023;-68
2021/04/23 12:00:51;;;;;;;4.85;1.25;;;24.40;77.90;;;;;;4968919;28;20057;-69
2021/04/23 12:03:19;;;;;;;4.35;1.25;;;24.30;79.10;;;;;;4976275;28;20109;-69
2021/04/23 12:05:58;;;;;;;5.43;1.38;;;24.50;78.90;;;;;;4972364;28;20642;-69
2021/04/23 12:08:31;;;;;;;10.48;1.55;;;24.40;78.10;;;;;;4977322;28;20542;-69
2021/04/23 12:10:56;;;;;;;16.05;1.55;;;23.90;74.90;;;;;;4976211;28;20038;-69
2021/04/23 12:13:24;;;;;;;4.93;1.33;;;24.40;76.70;;;;;;4979686;28;20471;-70
2021/04/23 12:15:55;;;;;;;5.95;1.20;;;24.50;77.40;;;;;;4970761;28;20077;-70
2021/04/23 12:18:21;;;;;;;2.60;1.17;;;24.10;75.40;;;;;;4971914;28;20503;-69
2021/04/23 12:20:55;;;;;;;4.85;1.10;;;23.90;76.90;;;;;;4975298;28;20034;-70
2021/04/23 12:23:24;;;;;;;3.15;1.15;;;24.40;76.30;;;;;;4968808;28;20126;-69
2021/04/23 12:25:58;;;;;;;11.02;1.55;;;24.40;75.50;;;;;;4961594;28;20041;-69
2021/04/23 12:28:36;;;;;;;4.95;1.73;;;24.60;76.70;;;;;;4980867;28;20547;-69
2021/04/23 12:31:23;;;;;;;5.45;1.30;;;24.30;76.90;;;;;;4969208;28;20034;-70
2021/04/23 12:33:59;;;;;;;5.63;1.38;;;24.80;75.10;;;;;;4960017;28;20051;-70
2021/04/23 12:36:35;;;;;;;7.78;1.33;;;25.50;76.30;;;;;;4960184;28;20022;-69
2021/04/23 12:39:04;;;;;;;4.40;1.30;;;25.30;71.60;;;;;;4952058;28;20031;-69
2021/04/23 12:41:32;;;;;;;5.53;1.20;;;25.20;73.30;;;;;;4961635;28;20408;-69
2021/04/23 12:44:00;;;;;;;2.55;1.10;;;25.30;73.50;;;;;;4954329;28;20175;-69
2021/04/23 12:46:26;;;;;;;6.03;1.33;;;25.30;74.80;;;;;;4964359;28;20089;-70
2021/04/23 12:48:56;;;;;;;4.07;1.25;;;25.30;72.60;;;;;;4966688;28;20031;-69
2021/04/23 12:51:22;;;;;;;3.90;0.85;;;25.80;71.10;;;;;;4960507;28;20031;-69
2021/04/23 12:53:50;;;;;;;1.42;1.02;;;26.10;71.40;;;;;;4955930;28;20077;-69
2021/04/23 12:56:18;;;;;;;9.52;1.30;;;25.80;71.90;;;;;;4963808;28;20019;-69
2021/04/23 12:58:44;;;;;;;6.22;1.20;;;26.00;70.80;;;;;;4965271;28;20019;-68